sensor_id;sensor_type;location;lat;lon;timestamp;P1;durP1;ratioP1;P2;durP2;ratioP2
49962;SDS011;36180;57.678;11.910;2023-05-16T00:00:48;23.13;;;20.50;;
49962;SDS011;36180;57.678;11.910;2023-05-16T00:03:17;22.15;;;19.13;;
49962;SDS011;36180;57.678;11.910;2023-05-16T00:05:44;24.63;;;19.30;;
49962;SDS011;36180;57.678;11.910;2023-05-16T00:08:12;23.02;;;19.45;;
49962;SDS011;36180;57.678;11.910;2023-05-16T00:10:40;20.83;;;17.98;;
49962;SDS011;36180;57.678;11.910;2023-05-16T00:13:08;21.50;;;19.02;;
49962;SDS011;36180;57.678;11.910;2023-05-16T00:15:35;22.52;;;18.95;;
49962;SDS011;36180;57.678;11.910;2023-05-16T00:18:02;25.42;;;20.10;;
49962;SDS011;36180;57.678;11.910;2023-05-16T00:20:29;25.35;;;20.35;;
49962;SDS011;36180;57.678;11.910;2023-05-16T00:22:56;27.27;;;20.85;;
49962;SDS011;36180;57.678;11.910;2023-05-16T00:25:25;29.08;;;21.73;;
49962;SDS011;36180;57.678;11.910;2023-05-16T00:27:54;28.23;;;22.45;;
49962;SDS011;36180;57.678;11.910;2023-05-16T00:30:21;26.83;;;21.27;;
49962;SDS011;36180;57.678;11.910;2023-05-16T00:32:50;24.02;;;19.92;;
49962;SDS011;36180;57.678;11.910;2023-05-16T00:35:17;23.98;;;21.42;;
49962;SDS011;36180;57.678;11.910;2023-05-16T00:37:44;24.58;;;21.17;;
49962;SDS011;36180;57.678;11.910;2023-05-16T00:40:11;23.80;;;20.00;;
49962;SDS011;36180;57.678;11.910;2023-05-16T00:42:38;25.83;;;21.70;;
49962;SDS011;36180;57.678;11.910;2023-05-16T00:45:08;27.92;;;21.77;;
49962;SDS011;36180;57.678;11.910;2023-05-16T00:47:35;25.38;;;21.13;;
49962;SDS011;36180;57.678;11.910;2023-05-16T00:50:02;26.25;;;21.02;;
49962;SDS011;36180;57.678;11.910;2023-05-16T00:52:31;25.73;;;20.88;;
49962;SDS011;36180;57.678;11.910;2023-05-16T00:54:58;26.45;;;20.70;;
49962;SDS011;36180;57.678;11.910;2023-05-16T00:57:26;25.30;;;19.73;;
49962;SDS011;36180;57.678;11.910;2023-05-16T00:59:53;23.60;;;20.17;;
49962;SDS011;36180;57.678;11.910;2023-05-16T01:02:22;25.23;;;21.75;;
49962;SDS011;36180;57.678;11.910;2023-05-16T01:04:52;24.97;;;20.83;;
49962;SDS011;36180;57.678;11.910;2023-05-16T01:07:21;27.35;;;22.20;;
49962;SDS011;36180;57.678;11.910;2023-05-16T01:09:49;30.80;;;21.23;;
49962;SDS011;36180;57.678;11.910;2023-05-16T01:12:18;27.70;;;22.35;;
49962;SDS011;36180;57.678;11.910;2023-05-16T01:14:50;31.58;;;23.50;;
49962;SDS011;36180;57.678;11.910;2023-05-16T01:17:26;29.00;;;23.42;;
49962;SDS011;36180;57.678;11.910;2023-05-16T01:19:59;29.48;;;23.10;;
49962;SDS011;36180;57.678;11.910;2023-05-16T01:22:34;27.45;;;23.23;;
49962;SDS011;36180;57.678;11.910;2023-05-16T01:25:10;26.80;;;22.60;;
49962;SDS011;36180;57.678;11.910;2023-05-16T01:27:44;32.72;;;23.38;;
49962;SDS011;36180;57.678;11.910;2023-05-16T01:30:12;30.83;;;23.00;;
49962;SDS011;36180;57.678;11.910;2023-05-16T01:32:41;29.92;;;23.42;;
49962;SDS011;36180;57.678;11.910;2023-05-16T01:35:09;28.42;;;22.70;;
49962;SDS011;36180;57.678;11.910;2023-05-16T01:37:40;29.02;;;23.98;;
49962;SDS011;36180;57.678;11.910;2023-05-16T01:40:11;37.05;;;24.70;;
49962;SDS011;36180;57.678;11.910;2023-05-16T01:42:44;30.88;;;24.10;;
49962;SDS011;36180;57.678;11.910;2023-05-16T01:45:13;32.28;;;25.77;;
49962;SDS011;36180;57.678;11.910;2023-05-16T01:47:46;30.60;;;25.40;;
49962;SDS011;36180;57.678;11.910;2023-05-16T01:50:18;32.53;;;26.70;;
49962;SDS011;36180;57.678;11.910;2023-05-16T01:52:48;31.17;;;26.00;;
49962;SDS011;36180;57.678;11.910;2023-05-16T01:55:28;34.22;;;26.80;;
49962;SDS011;36180;57.678;11.910;2023-05-16T01:58:01;34.13;;;27.47;;
49962;SDS011;36180;57.678;11.910;2023-05-16T02:00:29;33.00;;;27.73;;
49962;SDS011;36180;57.678;11.910;2023-05-16T02:02:58;38.03;;;28.85;;
49962;SDS011;36180;57.678;11.910;2023-05-16T02:05:25;35.30;;;28.83;;
49962;SDS011;36180;57.678;11.910;2023-05-16T02:07:52;36.50;;;28.92;;
49962;SDS011;36180;57.678;11.910;2023-05-16T02:10:20;37.58;;;29.83;;
49962;SDS011;36180;57.678;11.910;2023-05-16T02:12:48;42.20;;;33.67;;
49962;SDS011;36180;57.678;11.910;2023-05-16T02:15:17;39.38;;;34.38;;
49962;SDS011;36180;57.678;11.910;2023-05-16T02:17:44;44.42;;;35.75;;
49962;SDS011;36180;57.678;11.910;2023-05-16T02:20:11;45.30;;;34.60;;
49962;SDS011;36180;57.678;11.910;2023-05-16T02:22:39;45.65;;;38.60;;
49962;SDS011;36180;57.678;11.910;2023-05-16T02:25:07;46.22;;;38.15;;
49962;SDS011;36180;57.678;11.910;2023-05-16T02:27:34;49.08;;;39.67;;
49962;SDS011;36180;57.678;11.910;2023-05-16T02:30:02;45.60;;;38.55;;
49962;SDS011;36180;57.678;11.910;2023-05-16T02:32:31;43.58;;;36.95;;
49962;SDS011;36180;57.678;11.910;2023-05-16T02:34:58;47.08;;;40.17;;
49962;SDS011;36180;57.678;11.910;2023-05-16T02:37:25;47.83;;;40.72;;
49962;SDS011;36180;57.678;11.910;2023-05-16T02:39:52;46.38;;;40.33;;
49962;SDS011;36180;57.678;11.910;2023-05-16T02:42:19;47.83;;;40.38;;
49962;SDS011;36180;57.678;11.910;2023-05-16T02:44:46;49.03;;;40.40;;
49962;SDS011;36180;57.678;11.910;2023-05-16T02:47:13;58.45;;;43.00;;
49962;SDS011;36180;57.678;11.910;2023-05-16T02:49:43;56.78;;;43.72;;
49962;SDS011;36180;57.678;11.910;2023-05-16T02:52:10;66.65;;;44.60;;
49962;SDS011;36180;57.678;11.910;2023-05-16T02:54:37;61.88;;;44.00;;
49962;SDS011;36180;57.678;11.910;2023-05-16T02:57:04;63.85;;;45.05;;
49962;SDS011;36180;57.678;11.910;2023-05-16T02:59:31;112.82;;;43.60;;
49962;SDS011;36180;57.678;11.910;2023-05-16T03:01:58;64.03;;;41.45;;
49962;SDS011;36180;57.678;11.910;2023-05-16T03:04:25;132.63;;;42.45;;
49962;SDS011;36180;57.678;11.910;2023-05-16T03:06:54;81.95;;;42.72;;
49962;SDS011;36180;57.678;11.910;2023-05-16T03:09:21;76.75;;;47.05;;
49962;SDS011;36180;57.678;11.910;2023-05-16T03:11:48;78.72;;;47.13;;
49962;SDS011;36180;57.678;11.910;2023-05-16T03:14:18;92.40;;;48.45;;
49962;SDS011;36180;57.678;11.910;2023-05-16T03:16:45;82.57;;;49.72;;
49962;SDS011;36180;57.678;11.910;2023-05-16T03:19:12;86.97;;;51.80;;
49962;SDS011;36180;57.678;11.910;2023-05-16T03:21:39;83.47;;;49.47;;
49962;SDS011;36180;57.678;11.910;2023-05-16T03:24:08;83.93;;;49.15;;
49962;SDS011;36180;57.678;11.910;2023-05-16T03:26:35;73.15;;;48.75;;
49962;SDS011;36180;57.678;11.910;2023-05-16T03:29:03;81.30;;;50.03;;
49962;SDS011;36180;57.678;11.910;2023-05-16T03:31:30;72.25;;;46.30;;
49962;SDS011;36180;57.678;11.910;2023-05-16T03:33:57;89.03;;;56.35;;
49962;SDS011;36180;57.678;11.910;2023-05-16T03:36:25;87.00;;;51.30;;
49962;SDS011;36180;57.678;11.910;2023-05-16T03:38:53;79.60;;;46.58;;
49962;SDS011;36180;57.678;11.910;2023-05-16T03:41:21;85.10;;;47.00;;
49962;SDS011;36180;57.678;11.910;2023-05-16T03:43:48;95.03;;;44.42;;
49962;SDS011;36180;57.678;11.910;2023-05-16T03:46:15;77.85;;;43.38;;
49962;SDS011;36180;57.678;11.910;2023-05-16T03:48:43;80.13;;;42.22;;
49962;SDS011;36180;57.678;11.910;2023-05-16T03:51:10;88.22;;;42.63;;
49962;SDS011;36180;57.678;11.910;2023-05-16T03:53:37;76.47;;;40.30;;
49962;SDS011;36180;57.678;11.910;2023-05-16T03:56:04;67.75;;;38.97;;
49962;SDS011;36180;57.678;11.910;2023-05-16T03:58:33;67.65;;;43.47;;
49962;SDS011;36180;57.678;11.910;2023-05-16T04:01:00;59.58;;;40.00;;
49962;SDS011;36180;57.678;11.910;2023-05-16T04:03:27;62.80;;;39.97;;
49962;SDS011;36180;57.678;11.910;2023-05-16T04:05:55;61.55;;;39.67;;
49962;SDS011;36180;57.678;11.910;2023-05-16T04:08:23;61.60;;;40.85;;
49962;SDS011;36180;57.678;11.910;2023-05-16T04:10:50;54.17;;;37.70;;
49962;SDS011;36180;57.678;11.910;2023-05-16T04:13:17;56.38;;;36.22;;
49962;SDS011;36180;57.678;11.910;2023-05-16T04:15:45;59.30;;;37.42;;
49962;SDS011;36180;57.678;11.910;2023-05-16T04:18:12;55.88;;;36.85;;
49962;SDS011;36180;57.678;11.910;2023-05-16T04:20:40;61.10;;;38.53;;
49962;SDS011;36180;57.678;11.910;2023-05-16T04:23:08;57.03;;;36.83;;
49962;SDS011;36180;57.678;11.910;2023-05-16T04:25:36;59.05;;;37.22;;
49962;SDS011;36180;57.678;11.910;2023-05-16T04:28:03;62.25;;;38.90;;
49962;SDS011;36180;57.678;11.910;2023-05-16T04:30:31;67.43;;;40.88;;
49962;SDS011;36180;57.678;11.910;2023-05-16T04:32:59;58.80;;;39.58;;
49962;SDS011;36180;57.678;11.910;2023-05-16T04:35:27;56.20;;;40.10;;
49962;SDS011;36180;57.678;11.910;2023-05-16T04:37:54;60.10;;;39.35;;
49962;SDS011;36180;57.678;11.910;2023-05-16T04:40:21;54.92;;;37.25;;
49962;SDS011;36180;57.678;11.910;2023-05-16T04:42:49;59.95;;;39.30;;
49962;SDS011;36180;57.678;11.910;2023-05-16T04:45:16;53.40;;;39.25;;
49962;SDS011;36180;57.678;11.910;2023-05-16T04:47:43;53.63;;;38.88;;
49962;SDS011;36180;57.678;11.910;2023-05-16T04:50:12;56.72;;;39.92;;
49962;SDS011;36180;57.678;11.910;2023-05-16T04:52:40;52.22;;;40.92;;
49962;SDS011;36180;57.678;11.910;2023-05-16T04:55:07;47.00;;;35.83;;
49962;SDS011;36180;57.678;11.910;2023-05-16T04:57:35;50.28;;;39.05;;
49962;SDS011;36180;57.678;11.910;2023-05-16T05:00:03;43.33;;;35.15;;
49962;SDS011;36180;57.678;11.910;2023-05-16T05:02:34;45.20;;;35.60;;
49962;SDS011;36180;57.678;11.910;2023-05-16T05:05:02;37.95;;;33.80;;
49962;SDS011;36180;57.678;11.910;2023-05-16T05:07:31;36.40;;;30.85;;
49962;SDS011;36180;57.678;11.910;2023-05-16T05:09:58;35.80;;;29.98;;
49962;SDS011;36180;57.678;11.910;2023-05-16T05:12:25;32.55;;;29.15;;
49962;SDS011;36180;57.678;11.910;2023-05-16T05:14:52;29.83;;;26.65;;
49962;SDS011;36180;57.678;11.910;2023-05-16T05:17:20;29.42;;;24.88;;
49962;SDS011;36180;57.678;11.910;2023-05-16T05:19:48;33.40;;;25.70;;
49962;SDS011;36180;57.678;11.910;2023-05-16T05:22:15;29.67;;;25.52;;
49962;SDS011;36180;57.678;11.910;2023-05-16T05:24:43;28.67;;;25.65;;
49962;SDS011;36180;57.678;11.910;2023-05-16T05:27:10;26.63;;;23.35;;
49962;SDS011;36180;57.678;11.910;2023-05-16T05:29:37;29.15;;;25.55;;
49962;SDS011;36180;57.678;11.910;2023-05-16T05:32:04;28.90;;;23.80;;
49962;SDS011;36180;57.678;11.910;2023-05-16T05:34:32;23.75;;;21.17;;
49962;SDS011;36180;57.678;11.910;2023-05-16T05:36:59;26.05;;;21.75;;
49962;SDS011;36180;57.678;11.910;2023-05-16T05:39:26;24.45;;;22.05;;
49962;SDS011;36180;57.678;11.910;2023-05-16T05:41:55;22.83;;;20.63;;
49962;SDS011;36180;57.678;11.910;2023-05-16T05:44:22;24.88;;;20.58;;
49962;SDS011;36180;57.678;11.910;2023-05-16T05:46:49;21.70;;;19.35;;
49962;SDS011;36180;57.678;11.910;2023-05-16T05:49:16;19.85;;;17.67;;
49962;SDS011;36180;57.678;11.910;2023-05-16T05:51:44;22.05;;;18.70;;
49962;SDS011;36180;57.678;11.910;2023-05-16T05:54:11;20.48;;;18.30;;
49962;SDS011;36180;57.678;11.910;2023-05-16T05:56:38;19.08;;;17.10;;
49962;SDS011;36180;57.678;11.910;2023-05-16T05:59:06;17.15;;;15.40;;
49962;SDS011;36180;57.678;11.910;2023-05-16T06:01:33;16.20;;;14.70;;
49962;SDS011;36180;57.678;11.910;2023-05-16T06:04:00;16.35;;;13.85;;
49962;SDS011;36180;57.678;11.910;2023-05-16T06:06:27;15.85;;;13.32;;
49962;SDS011;36180;57.678;11.910;2023-05-16T06:08:55;14.57;;;12.40;;
49962;SDS011;36180;57.678;11.910;2023-05-16T06:11:22;13.52;;;12.10;;
49962;SDS011;36180;57.678;11.910;2023-05-16T06:13:50;17.25;;;11.88;;
49962;SDS011;36180;57.678;11.910;2023-05-16T06:16:18;16.63;;;11.90;;
49962;SDS011;36180;57.678;11.910;2023-05-16T06:18:49;19.60;;;10.68;;
49962;SDS011;36180;57.678;11.910;2023-05-16T06:21:16;12.40;;;10.43;;
49962;SDS011;36180;57.678;11.910;2023-05-16T06:23:43;14.85;;;10.20;;
49962;SDS011;36180;57.678;11.910;2023-05-16T06:26:10;15.80;;;10.05;;
49962;SDS011;36180;57.678;11.910;2023-05-16T06:28:37;14.93;;;9.35;;
49962;SDS011;36180;57.678;11.910;2023-05-16T06:31:04;12.20;;;9.63;;
49962;SDS011;36180;57.678;11.910;2023-05-16T06:33:33;12.88;;;9.48;;
49962;SDS011;36180;57.678;11.910;2023-05-16T06:36:00;12.88;;;9.20;;
49962;SDS011;36180;57.678;11.910;2023-05-16T06:38:27;11.55;;;9.05;;
49962;SDS011;36180;57.678;11.910;2023-05-16T06:40:54;12.43;;;8.15;;
49962;SDS011;36180;57.678;11.910;2023-05-16T06:43:21;10.45;;;7.68;;
49962;SDS011;36180;57.678;11.910;2023-05-16T06:45:49;13.50;;;7.78;;
49962;SDS011;36180;57.678;11.910;2023-05-16T06:48:16;11.65;;;7.45;;
49962;SDS011;36180;57.678;11.910;2023-05-16T06:50:47;11.85;;;7.18;;
49962;SDS011;36180;57.678;11.910;2023-05-16T06:53:16;13.40;;;8.60;;
49962;SDS011;36180;57.678;11.910;2023-05-16T06:55:43;16.38;;;8.20;;
49962;SDS011;36180;57.678;11.910;2023-05-16T06:58:10;10.75;;;7.57;;
49962;SDS011;36180;57.678;11.910;2023-05-16T07:00:37;14.13;;;8.63;;
49962;SDS011;36180;57.678;11.910;2023-05-16T07:03:04;11.80;;;8.48;;
49962;SDS011;36180;57.678;11.910;2023-05-16T07:05:32;17.95;;;8.45;;
49962;SDS011;36180;57.678;11.910;2023-05-16T07:08:00;12.27;;;7.95;;
49962;SDS011;36180;57.678;11.910;2023-05-16T07:10:27;15.73;;;8.27;;
49962;SDS011;36180;57.678;11.910;2023-05-16T07:12:54;10.52;;;7.78;;
49962;SDS011;36180;57.678;11.910;2023-05-16T07:15:22;10.80;;;8.00;;
49962;SDS011;36180;57.678;11.910;2023-05-16T07:17:49;10.60;;;8.18;;
49962;SDS011;36180;57.678;11.910;2023-05-16T07:20:16;13.07;;;9.07;;
49962;SDS011;36180;57.678;11.910;2023-05-16T07:22:43;11.55;;;8.32;;
49962;SDS011;36180;57.678;11.910;2023-05-16T07:25:12;17.17;;;8.43;;
49962;SDS011;36180;57.678;11.910;2023-05-16T07:27:40;11.27;;;8.07;;
49962;SDS011;36180;57.678;11.910;2023-05-16T07:30:09;11.73;;;8.27;;
49962;SDS011;36180;57.678;11.910;2023-05-16T07:32:37;11.65;;;7.13;;
49962;SDS011;36180;57.678;11.910;2023-05-16T07:35:05;12.23;;;7.30;;
49962;SDS011;36180;57.678;11.910;2023-05-16T07:37:32;11.23;;;6.57;;
49962;SDS011;36180;57.678;11.910;2023-05-16T07:40:00;10.45;;;7.47;;
49962;SDS011;36180;57.678;11.910;2023-05-16T07:42:29;12.30;;;6.80;;
49962;SDS011;36180;57.678;11.910;2023-05-16T07:44:56;12.63;;;7.03;;
49962;SDS011;36180;57.678;11.910;2023-05-16T07:47:23;10.75;;;6.90;;
49962;SDS011;36180;57.678;11.910;2023-05-16T07:49:51;9.25;;;7.13;;
49962;SDS011;36180;57.678;11.910;2023-05-16T07:52:18;12.05;;;7.53;;
49962;SDS011;36180;57.678;11.910;2023-05-16T07:54:45;12.57;;;8.38;;
49962;SDS011;36180;57.678;11.910;2023-05-16T07:57:12;9.52;;;8.63;;
49962;SDS011;36180;57.678;11.910;2023-05-16T07:59:41;15.68;;;8.57;;
49962;SDS011;36180;57.678;11.910;2023-05-16T08:02:09;9.00;;;7.50;;
49962;SDS011;36180;57.678;11.910;2023-05-16T08:04:36;10.57;;;8.13;;
49962;SDS011;36180;57.678;11.910;2023-05-16T08:07:03;9.82;;;7.22;;
49962;SDS011;36180;57.678;11.910;2023-05-16T08:09:31;9.70;;;7.40;;
49962;SDS011;36180;57.678;11.910;2023-05-16T08:11:58;11.50;;;7.75;;
49962;SDS011;36180;57.678;11.910;2023-05-16T08:14:28;11.00;;;7.35;;
49962;SDS011;36180;57.678;11.910;2023-05-16T08:16:57;10.52;;;6.50;;
49962;SDS011;36180;57.678;11.910;2023-05-16T08:19:24;12.75;;;7.30;;
49962;SDS011;36180;57.678;11.910;2023-05-16T08:21:51;10.20;;;6.43;;
49962;SDS011;36180;57.678;11.910;2023-05-16T08:24:19;12.60;;;6.60;;
49962;SDS011;36180;57.678;11.910;2023-05-16T08:26:46;9.13;;;6.65;;
49962;SDS011;36180;57.678;11.910;2023-05-16T08:29:13;10.65;;;6.72;;
49962;SDS011;36180;57.678;11.910;2023-05-16T08:31:40;9.80;;;6.53;;
49962;SDS011;36180;57.678;11.910;2023-05-16T08:34:08;13.73;;;7.88;;
49962;SDS011;36180;57.678;11.910;2023-05-16T08:36:35;7.63;;;6.25;;
49962;SDS011;36180;57.678;11.910;2023-05-16T08:39:03;11.05;;;6.30;;
49962;SDS011;36180;57.678;11.910;2023-05-16T08:41:30;9.55;;;5.63;;
49962;SDS011;36180;57.678;11.910;2023-05-16T08:43:57;10.88;;;6.72;;
49962;SDS011;36180;57.678;11.910;2023-05-16T08:46:24;10.40;;;7.43;;
49962;SDS011;36180;57.678;11.910;2023-05-16T08:48:52;7.57;;;6.53;;
49962;SDS011;36180;57.678;11.910;2023-05-16T08:51:20;11.77;;;7.15;;
49962;SDS011;36180;57.678;11.910;2023-05-16T08:53:51;10.90;;;6.35;;
49962;SDS011;36180;57.678;11.910;2023-05-16T08:56:25;8.57;;;5.68;;
49962;SDS011;36180;57.678;11.910;2023-05-16T08:58:52;7.28;;;6.00;;
49962;SDS011;36180;57.678;11.910;2023-05-16T09:01:22;11.13;;;6.07;;
49962;SDS011;36180;57.678;11.910;2023-05-16T09:03:49;10.43;;;6.32;;
49962;SDS011;36180;57.678;11.910;2023-05-16T09:06:16;11.13;;;6.13;;
49962;SDS011;36180;57.678;11.910;2023-05-16T09:08:45;14.73;;;6.18;;
49962;SDS011;36180;57.678;11.910;2023-05-16T09:11:13;13.15;;;6.32;;
49962;SDS011;36180;57.678;11.910;2023-05-16T09:13:41;13.30;;;6.20;;
49962;SDS011;36180;57.678;11.910;2023-05-16T09:16:08;12.30;;;5.50;;
49962;SDS011;36180;57.678;11.910;2023-05-16T09:18:36;11.23;;;6.18;;
49962;SDS011;36180;57.678;11.910;2023-05-16T09:21:04;13.32;;;6.55;;
49962;SDS011;36180;57.678;11.910;2023-05-16T09:23:32;14.48;;;6.63;;
49962;SDS011;36180;57.678;11.910;2023-05-16T09:26:01;11.68;;;6.82;;
49962;SDS011;36180;57.678;11.910;2023-05-16T09:28:29;18.63;;;7.93;;
49962;SDS011;36180;57.678;11.910;2023-05-16T09:30:56;13.13;;;7.30;;
49962;SDS011;36180;57.678;11.910;2023-05-16T09:33:26;10.20;;;7.40;;
49962;SDS011;36180;57.678;11.910;2023-05-16T09:35:54;72.72;;;13.52;;
49962;SDS011;36180;57.678;11.910;2023-05-16T09:38:24;11.57;;;7.22;;
49962;SDS011;36180;57.678;11.910;2023-05-16T09:40:51;9.43;;;6.35;;
49962;SDS011;36180;57.678;11.910;2023-05-16T09:43:21;12.40;;;7.22;;
49962;SDS011;36180;57.678;11.910;2023-05-16T09:45:50;10.57;;;7.05;;
49962;SDS011;36180;57.678;11.910;2023-05-16T09:48:17;10.65;;;6.93;;
49962;SDS011;36180;57.678;11.910;2023-05-16T09:50:47;13.05;;;6.65;;
49962;SDS011;36180;57.678;11.910;2023-05-16T09:53:17;12.00;;;6.18;;
49962;SDS011;36180;57.678;11.910;2023-05-16T09:55:44;15.15;;;6.85;;
49962;SDS011;36180;57.678;11.910;2023-05-16T09:58:12;14.43;;;6.68;;
49962;SDS011;36180;57.678;11.910;2023-05-16T10:00:44;13.93;;;6.28;;
49962;SDS011;36180;57.678;11.910;2023-05-16T10:03:11;9.48;;;7.07;;
49962;SDS011;36180;57.678;11.910;2023-05-16T10:05:39;14.32;;;7.10;;
49962;SDS011;36180;57.678;11.910;2023-05-16T10:08:06;15.55;;;6.85;;
49962;SDS011;36180;57.678;11.910;2023-05-16T10:10:34;11.88;;;6.40;;
49962;SDS011;36180;57.678;11.910;2023-05-16T10:13:02;11.30;;;6.30;;
49962;SDS011;36180;57.678;11.910;2023-05-16T10:15:31;12.90;;;7.00;;
49962;SDS011;36180;57.678;11.910;2023-05-16T10:18:00;13.48;;;6.47;;
49962;SDS011;36180;57.678;11.910;2023-05-16T10:20:27;14.70;;;7.13;;
49962;SDS011;36180;57.678;11.910;2023-05-16T10:22:55;10.82;;;6.57;;
49962;SDS011;36180;57.678;11.910;2023-05-16T10:25:24;11.35;;;6.78;;
49962;SDS011;36180;57.678;11.910;2023-05-16T10:30:21;13.85;;;6.97;;
49962;SDS011;36180;57.678;11.910;2023-05-16T10:32:48;12.90;;;7.45;;
49962;SDS011;36180;57.678;11.910;2023-05-16T10:35:17;26.95;;;7.72;;
49962;SDS011;36180;57.678;11.910;2023-05-16T10:37:45;11.15;;;6.63;;
49962;SDS011;36180;57.678;11.910;2023-05-16T10:40:13;9.60;;;6.90;;
49962;SDS011;36180;57.678;11.910;2023-05-16T10:42:43;13.55;;;7.80;;
49962;SDS011;36180;57.678;11.910;2023-05-16T10:45:17;12.82;;;7.97;;
49962;SDS011;36180;57.678;11.910;2023-05-16T10:47:49;11.32;;;7.55;;
49962;SDS011;36180;57.678;11.910;2023-05-16T10:50:32;12.88;;;7.72;;
49962;SDS011;36180;57.678;11.910;2023-05-16T10:53:15;12.35;;;8.63;;
49962;SDS011;36180;57.678;11.910;2023-05-16T10:55:48;10.70;;;7.03;;
49962;SDS011;36180;57.678;11.910;2023-05-16T10:58:41;8.52;;;6.78;;
49962;SDS011;36180;57.678;11.910;2023-05-16T11:01:19;12.77;;;7.38;;
49962;SDS011;36180;57.678;11.910;2023-05-16T11:03:59;15.48;;;7.32;;
49962;SDS011;36180;57.678;11.910;2023-05-16T11:06:29;10.38;;;6.78;;
49962;SDS011;36180;57.678;11.910;2023-05-16T11:09:04;11.50;;;7.20;;
49962;SDS011;36180;57.678;11.910;2023-05-16T11:11:37;12.10;;;6.90;;
49962;SDS011;36180;57.678;11.910;2023-05-16T11:14:05;12.00;;;7.07;;
49962;SDS011;36180;57.678;11.910;2023-05-16T11:16:32;9.57;;;6.70;;
49962;SDS011;36180;57.678;11.910;2023-05-16T11:19:03;9.68;;;6.57;;
49962;SDS011;36180;57.678;11.910;2023-05-16T11:24:44;11.93;;;6.82;;
49962;SDS011;36180;57.678;11.910;2023-05-16T11:27:18;7.82;;;6.40;;
49962;SDS011;36180;57.678;11.910;2023-05-16T11:29:47;9.30;;;5.95;;
49962;SDS011;36180;57.678;11.910;2023-05-16T11:32:17;10.38;;;6.40;;
49962;SDS011;36180;57.678;11.910;2023-05-16T11:34:45;15.15;;;7.13;;
49962;SDS011;36180;57.678;11.910;2023-05-16T11:37:14;13.18;;;6.55;;
49962;SDS011;36180;57.678;11.910;2023-05-16T11:39:41;15.45;;;6.03;;
49962;SDS011;36180;57.678;11.910;2023-05-16T11:42:08;11.75;;;6.60;;
49962;SDS011;36180;57.678;11.910;2023-05-16T11:44:37;10.18;;;5.68;;
49962;SDS011;36180;57.678;11.910;2023-05-16T11:47:04;9.20;;;5.53;;
49962;SDS011;36180;57.678;11.910;2023-05-16T11:49:32;11.65;;;6.57;;
49962;SDS011;36180;57.678;11.910;2023-05-16T11:51:59;8.80;;;5.30;;
49962;SDS011;36180;57.678;11.910;2023-05-16T11:54:28;9.77;;;5.28;;
49962;SDS011;36180;57.678;11.910;2023-05-16T11:56:55;12.45;;;5.82;;
49962;SDS011;36180;57.678;11.910;2023-05-16T11:59:23;8.02;;;5.28;;
49962;SDS011;36180;57.678;11.910;2023-05-16T12:01:50;8.60;;;5.45;;
49962;SDS011;36180;57.678;11.910;2023-05-16T12:04:17;10.20;;;5.25;;
49962;SDS011;36180;57.678;11.910;2023-05-16T12:06:56;11.52;;;5.15;;
49962;SDS011;36180;57.678;11.910;2023-05-16T12:09:24;8.55;;;5.75;;
49962;SDS011;36180;57.678;11.910;2023-05-16T12:11:53;10.73;;;5.80;;
49962;SDS011;36180;57.678;11.910;2023-05-16T12:14:20;7.85;;;5.80;;
49962;SDS011;36180;57.678;11.910;2023-05-16T12:16:48;8.13;;;5.22;;
49962;SDS011;36180;57.678;11.910;2023-05-16T12:19:17;10.82;;;5.70;;
49962;SDS011;36180;57.678;11.910;2023-05-16T12:21:45;10.50;;;6.38;;
49962;SDS011;36180;57.678;11.910;2023-05-16T12:24:12;9.40;;;6.05;;
49962;SDS011;36180;57.678;11.910;2023-05-16T12:26:39;8.20;;;6.32;;
49962;SDS011;36180;57.678;11.910;2023-05-16T12:29:09;10.15;;;6.00;;
49962;SDS011;36180;57.678;11.910;2023-05-16T12:31:37;8.43;;;5.78;;
49962;SDS011;36180;57.678;11.910;2023-05-16T12:34:13;8.40;;;5.18;;
49962;SDS011;36180;57.678;11.910;2023-05-16T12:36:41;5.22;;;4.72;;
49962;SDS011;36180;57.678;11.910;2023-05-16T12:39:10;6.25;;;4.57;;
49962;SDS011;36180;57.678;11.910;2023-05-16T12:41:39;13.75;;;5.57;;
49962;SDS011;36180;57.678;11.910;2023-05-16T12:44:12;14.95;;;6.18;;
49962;SDS011;36180;57.678;11.910;2023-05-16T12:46:42;9.20;;;5.65;;
49962;SDS011;36180;57.678;11.910;2023-05-16T12:49:09;9.80;;;6.10;;
49962;SDS011;36180;57.678;11.910;2023-05-16T12:51:37;8.35;;;5.90;;
49962;SDS011;36180;57.678;11.910;2023-05-16T12:54:07;8.05;;;5.47;;
49962;SDS011;36180;57.678;11.910;2023-05-16T12:56:38;13.65;;;5.82;;
49962;SDS011;36180;57.678;11.910;2023-05-16T12:59:06;9.70;;;5.93;;
49962;SDS011;36180;57.678;11.910;2023-05-16T13:01:35;9.32;;;5.25;;
49962;SDS011;36180;57.678;11.910;2023-05-16T13:04:02;11.18;;;6.15;;
49962;SDS011;36180;57.678;11.910;2023-05-16T13:06:30;7.70;;;5.65;;
49962;SDS011;36180;57.678;11.910;2023-05-16T13:08:57;9.10;;;6.25;;
49962;SDS011;36180;57.678;11.910;2023-05-16T13:11:24;7.32;;;6.15;;
49962;SDS011;36180;57.678;11.910;2023-05-16T13:13:51;7.28;;;5.80;;
49962;SDS011;36180;57.678;11.910;2023-05-16T13:16:18;8.25;;;6.00;;
49962;SDS011;36180;57.678;11.910;2023-05-16T13:18:47;8.90;;;5.90;;
49962;SDS011;36180;57.678;11.910;2023-05-16T13:21:15;9.00;;;6.40;;
49962;SDS011;36180;57.678;11.910;2023-05-16T13:23:42;10.77;;;7.18;;
49962;SDS011;36180;57.678;11.910;2023-05-16T13:26:09;6.55;;;5.90;;
49962;SDS011;36180;57.678;11.910;2023-05-16T13:28:36;9.85;;;6.93;;
49962;SDS011;36180;57.678;11.910;2023-05-16T13:31:03;9.18;;;7.40;;
49962;SDS011;36180;57.678;11.910;2023-05-16T13:33:30;9.57;;;7.28;;
49962;SDS011;36180;57.678;11.910;2023-05-16T13:35:58;10.65;;;6.53;;
49962;SDS011;36180;57.678;11.910;2023-05-16T13:38:25;7.20;;;6.47;;
49962;SDS011;36180;57.678;11.910;2023-05-16T13:40:52;8.38;;;6.82;;
49962;SDS011;36180;57.678;11.910;2023-05-16T13:43:19;6.82;;;6.22;;
49962;SDS011;36180;57.678;11.910;2023-05-16T13:45:46;7.93;;;6.40;;
49962;SDS011;36180;57.678;11.910;2023-05-16T13:48:14;7.13;;;6.35;;
49962;SDS011;36180;57.678;11.910;2023-05-16T13:50:41;8.32;;;6.70;;
49962;SDS011;36180;57.678;11.910;2023-05-16T13:53:09;7.55;;;5.97;;
49962;SDS011;36180;57.678;11.910;2023-05-16T13:55:36;9.88;;;5.80;;
49962;SDS011;36180;57.678;11.910;2023-05-16T13:58:03;6.28;;;5.65;;
49962;SDS011;36180;57.678;11.910;2023-05-16T14:00:30;6.88;;;5.63;;
49962;SDS011;36180;57.678;11.910;2023-05-16T14:02:57;7.10;;;5.50;;
49962;SDS011;36180;57.678;11.910;2023-05-16T14:05:24;8.07;;;5.60;;
49962;SDS011;36180;57.678;11.910;2023-05-16T14:07:51;6.82;;;5.38;;
49962;SDS011;36180;57.678;11.910;2023-05-16T14:10:20;5.72;;;5.13;;
49962;SDS011;36180;57.678;11.910;2023-05-16T14:12:47;9.40;;;5.07;;
49962;SDS011;36180;57.678;11.910;2023-05-16T14:15:15;8.63;;;5.55;;
49962;SDS011;36180;57.678;11.910;2023-05-16T14:17:42;8.38;;;6.20;;
49962;SDS011;36180;57.678;11.910;2023-05-16T14:20:10;8.77;;;6.07;;
49962;SDS011;36180;57.678;11.910;2023-05-16T14:22:39;8.25;;;5.60;;
49962;SDS011;36180;57.678;11.910;2023-05-16T14:25:06;6.82;;;5.63;;
49962;SDS011;36180;57.678;11.910;2023-05-16T14:27:36;8.52;;;6.25;;
49962;SDS011;36180;57.678;11.910;2023-05-16T14:30:03;7.93;;;5.55;;